Aktualne dane pomiarowe

Uwaga, wersja testowa! Automatyczne pobieranie danych za pomocą narzędzi lub skryptów to umożliwiających jest zabronione.

Dane meteo z obszaru Polski uzyskane na podstawie depesz SYNOP pobieranych co godzinę z NWS. Najedź myszką na symbol przedstawiony w tabeli, aby uzyskać informacje co do jego znaczenia. Prosimy pamiętać, że to testowa wersja strony, która jeszcze nie jest ukończona. Stworzono również jest krótki FAQ dotyczący korzystania z tej podstrony Anomalie temperatury w chwili obecnej odniesione są do okresu referencyjnego 1951-2016. Okres ten będzie później zmieniony na 1981-2010. Kliknij ikonę aby pobrać plik CSV. Kliknij ikonę aby wygenerować mapę synoptyczną dla danego terminu.

Wybierz Datę:    

        

Włodawa (12497)

Dane terminowe dla wybranej stacji. Kliknij datę, aby otrzymać dane z tego terminu dla wszystkich stacji.

TemperaturaZachmurzenieWiatrCiśnienieOpadyPogoda
 Data t td wb tx tn tg rh  Nt Nl Cl Cm Ch ws wd g1 g2 wx mslp ppp ch 24h 12h t ww ww w1 w2  
2019-06-22 23:00:00 16.4 12.0 13.5--- 7520.0wxwxwxwxwx3wx--31020.2 999.0 0.2---------
2019-06-22 22:00:00 18.5 11.8 14.3--- 6520.0wx-wxwx3wx--31020.0 998.9 0.1---------
2019-06-22 21:00:00 18.4 13.5 15.2--- 7320.0wx-wxwx3wx--31019.9 998.8 0.3---------
2019-06-22 20:00:00 18.9 14.6 16.0--- 7620.0wx-wxwx2wx--21019.8 998.8 0.3---------
2019-06-22 19:00:00 20.1 15.3 16.9--- 7420.0wxwxwxwxwx2wx--21019.7 998.8 0.5---------
2019-06-22 18:00:00 21.4 15.7 17.6 24.8 17.9- 7020.0wxwxwxwxwx2wx--21019.3 998.5 -0.1- 0.012------
2019-06-22 17:00:00 23.0 15.3 18.0--- 6220.0wxwxwxwxwx3wx--31019.2 998.5 -0.1---------
2019-06-22 16:00:00 23.7 14.7 17.9--- 5720.0wxwxwxwxwx2wx--21019.0 998.3 -0.7---------
2019-06-22 15:00:00 24.4 13.9 17.8--- 5220.0wxwxwxwxwx5wx--51019.2 998.6 -0.9---------
2019-06-22 14:00:00 24.3 14.7 18.2--- 5520.0wxwxwxwxwx5wx--51019.2 998.6 -1.2---------
2019-06-22 13:00:00 23.5 14.8 17.9--- 5820.0wxwxwxwx5wx--51019.7 999.0 -0.7---------
2019-06-22 12:00:00 22.8 15.6 18.1--- 6420.0wxwxwxwx4wx---1020.3 999.5 0.0---------
2019-06-22 11:00:00 22.7 15.5 18.0--- 6420.0wxwxwxwx4wx---1020.6 999.8 0.7---------
2019-06-22 10:00:00 21.8 15.6 17.7--- 6820.0wxwxwxwx5wx-951020.5 999.7 1.0---------
2019-06-22 09:00:00 21.0 16.2 17.7--- 7420.0wxwxwxwx4wx--41020.4 999.5 1.3---------
2019-06-22 08:00:00 20.0 16.8 17.8--- 8220.0wxwxwx5wx--51020.1 999.1 1.3---------
2019-06-22 07:00:00 18.8 16.6 17.2--- 8715.0wxwxwx4wx--41019.7 998.7 1.4---------
2019-06-22 06:00:00 18.0 17.2 17.4 19.6 17.5 17 958.0wxwxwx4wx--41019.3 998.2 1.3 6.1 0.312wx-- 7.5
2019-06-22 05:00:00 17.6 17.0 17.2--- 966.0wxwxwx4wx--41018.9 997.8 1.7---wx---
2019-06-22 04:00:00 17.6 17.0 17.2--- 967.0wxwxwx4wx--41018.4 997.3 1.4---wx---
2019-06-22 03:00:00 17.5 17.0 17.1--- 976.0wxwxwxwx3wx--31018.0 996.9 1.5---wx---
2019-06-22 02:00:00 17.6 17.0 17.2--- 966.0wxwxwxwx4wx--41017.2 996.1 1.1---wx---
2019-06-22 01:00:00 17.7 17.2 17.3--- 974.0wx-wx3wx--31017.0 995.9 1.0---wx---
2019-06-22 00:00:00 18.0 17.4 17.6--- 964.0wx-wx2wx--21016.4 995.4 0.6- 0.36wx-w1--
2019-06-21 23:00:00 18.2 17.6 17.8--- 966.0wx-wx3wx--31016.0 995.0 0.0---wx---
2019-06-21 22:00:00 18.4 17.6 17.8--- 954.0wx-wx2wx--21015.9 994.9 0.2---wx---
2019-06-21 21:00:00 19.0 17.8 18.1--- 939.0wx-wx3wx--31015.7 994.8 0.3---wx-w1--
2019-06-21 20:00:00 19.3 18.6 18.8--- 968.0wxwxwxwx2wx--21015.9 995.0 1.6---wx---
2019-06-21 19:00:00 19.5 18.8 19.0--- 966.0wxwxwxwx1wx--11015.6 994.7 1.6---wx-w1--
2019-06-21 18:00:00 19.6 18.6 18.9 27.3 18.6- 9410.0wxwxwxwx1wx--11015.4 994.5 1.6- 6.012wx-w1--
2019-06-21 17:00:00 19.8 18.6 18.9--- 9315.0wxwxwxwx2wx---1014.3 993.4 0.3---wx-w1--
2019-06-21 16:00:00 19.6 18.6 18.9--- 9410.0wxwxwxwx2wx--21014.0 993.1 0.4---wx-w1w2--
2019-06-21 15:00:00 19.2 17.0 17.6--- 8720.0wxwxwx4wx---1013.8 992.9 -0.1---wx-w1w2--
2019-06-21 14:00:00 22.3 18.3 19.5--- 7820.0wxwxwx4wx--41013.8 993.1 -0.2---wx-w1w2--
2019-06-21 13:00:00 24.3 19.8 21.1--- 7620.0wxwxwx4wx--41013.2 992.7 -0.7---wx---
2019-06-21 12:00:00 26.3 19.7 21.7--- 6720.0wxwxwxwx2wx--21013.4 993.0 -0.2- 0.06------
2019-06-21 11:00:00 25.5 19.2 21.1--- 6820.0wxwxwxwx3wx---1013.7 993.3 0.3---------
2019-06-21 10:00:00 24.0 19.3 20.7--- 7520.0wxwxwxwx5wx---1014.0 993.4 0.7---------
2019-06-21 09:00:00 26.3 19.2 21.4--- 6520.0wxwxwxwx4wx--41013.6 993.2 0.4---------
2019-06-21 08:00:00 26.2 18.1 20.7--- 6120.0wxwxwxwxwx3wx--31013.4 993.0 0.4---------
2019-06-21 07:00:00 25.2 19.3 21.1--- 7020.0wxwxwxwxwx3wx--31013.2 992.7 0.3---------
2019-06-21 06:00:00 22.7 18.5 19.8 22.7 17.0 16 7720.0wx-wxwx3wx--31013.4 992.8 0.3 5.8 0.412----- 12.2
2019-06-21 05:00:00 20.4 18.0 18.7--- 8620.0wx-wxwx3wx--31013.4 992.6 0.6---------
2019-06-21 04:00:00 18.5 17.3 17.6--- 9312.0wxwxwxwxwx1wx--11013.3 992.4 0.7---------
2019-06-21 03:00:00 17.1 16.5 16.6--- 968.0wxwxwxwxwx1wx--11013.5 992.5 1.2---wx---
2019-06-21 02:00:00 17.3 16.5 16.7--- 9510.0wx-wxwx3wx--31013.0 992.0 0.8---------
2019-06-21 01:00:00 18.3 17.1 17.4--- 9318.0wx-wxwx2wx--21012.6 991.7 -0.1---------
2019-06-21 00:00:00 18.4 17.1 17.5--- 9215.0wxwxwxwxwx1wx--11012.2 991.3 0.0- 0.46wx-w1w2--
2.7 ms

 

Print Friendly, PDF & Email